createdAt,value
2023-04-27T00:01:43.269Z,9.68
2023-04-27T00:04:10.487Z,9.67
2023-04-27T00:06:37.724Z,9.68
2023-04-27T00:09:04.771Z,9.68
2023-04-27T00:11:31.912Z,9.67
2023-04-27T00:13:58.973Z,9.66
2023-04-27T00:16:26.158Z,9.66
2023-04-27T00:18:53.166Z,9.65
2023-04-27T00:21:20.301Z,9.66
2023-04-27T00:23:47.248Z,9.69
2023-04-27T00:26:14.198Z,9.72
2023-04-27T00:28:43.397Z,9.73
2023-04-27T00:31:10.332Z,9.72
2023-04-27T00:33:37.386Z,9.70
2023-04-27T00:36:04.940Z,9.69
2023-04-27T00:38:31.884Z,9.69
2023-04-27T00:41:06.201Z,9.71
2023-04-27T00:43:33.668Z,9.73
2023-04-27T00:46:01.157Z,9.75
2023-04-27T00:48:28.479Z,9.79
2023-04-27T00:50:55.699Z,9.83
2023-04-27T00:53:22.671Z,9.87
2023-04-27T00:55:49.712Z,9.92
2023-04-27T00:58:16.658Z,9.96
2023-04-27T01:00:43.605Z,9.98
2023-04-27T01:03:11.173Z,10.00
2023-04-27T01:05:38.305Z,10.01
2023-04-27T01:08:05.761Z,10.04
2023-04-27T01:10:32.807Z,10.08
2023-04-27T01:13:00.279Z,10.11
2023-04-27T01:15:28.026Z,10.14
2023-04-27T01:18:02.665Z,10.16
2023-04-27T01:20:30.634Z,10.18
2023-04-27T01:22:58.679Z,10.20
2023-04-27T01:25:25.863Z,10.21
2023-04-27T01:27:53.909Z,10.22
2023-04-27T01:30:22.772Z,10.23
2023-04-27T01:32:50.394Z,10.25
2023-04-27T01:35:19.364Z,10.27
2023-04-27T01:37:46.417Z,10.27
2023-04-27T01:40:13.959Z,10.29
2023-04-27T01:42:41.008Z,10.31
2023-04-27T01:45:09.805Z,10.30
2023-04-27T01:47:37.928Z,10.29
2023-04-27T01:50:06.446Z,10.25
2023-04-27T01:52:33.393Z,10.20
2023-04-27T01:55:02.837Z,10.18
2023-04-27T01:57:29.841Z,10.15
2023-04-27T01:59:57.111Z,10.14
2023-04-27T02:02:24.231Z,10.12
2023-04-27T02:04:51.714Z,10.10
2023-04-27T02:07:19.570Z,10.05
2023-04-27T02:09:46.922Z,10.01
2023-04-27T02:12:14.583Z,9.99
2023-04-27T02:14:41.531Z,9.96
2023-04-27T02:17:08.615Z,9.93
2023-04-27T02:19:36.468Z,9.92
2023-04-27T02:22:04.300Z,9.90
2023-04-27T02:24:32.067Z,9.89
2023-04-27T02:27:01.164Z,9.88
2023-04-27T02:29:31.789Z,9.87
2023-04-27T02:31:59.357Z,9.86
2023-04-27T02:34:26.502Z,9.85
2023-04-27T02:36:53.551Z,9.83
2023-04-27T02:39:20.494Z,9.80
2023-04-27T02:41:47.386Z,9.79
2023-04-27T02:44:15.711Z,9.78
2023-04-27T02:46:42.709Z,9.78
2023-04-27T02:49:10.110Z,9.80
2023-04-27T02:51:37.062Z,9.80
2023-04-27T02:54:04.511Z,9.82
2023-04-27T02:56:31.661Z,9.84
2023-04-27T02:58:59.116Z,9.87
2023-04-27T03:01:26.313Z,9.90
2023-04-27T03:03:53.649Z,9.94
2023-04-27T03:06:20.866Z,9.98
2023-04-27T03:08:47.920Z,10.03
2023-04-27T03:11:14.963Z,10.07
2023-04-27T03:13:42.314Z,10.12
2023-04-27T03:16:11.186Z,10.16
2023-04-27T03:18:39.589Z,10.20
2023-04-27T03:21:08.281Z,10.22
2023-04-27T03:23:35.318Z,10.22
2023-04-27T03:26:14.868Z,10.21
2023-04-27T03:28:42.433Z,10.20
2023-04-27T03:31:11.222Z,10.18
2023-04-27T03:33:38.661Z,10.18
2023-04-27T03:36:06.710Z,10.19
2023-04-27T03:38:34.086Z,10.21
2023-04-27T03:41:01.231Z,10.21
2023-04-27T03:43:28.479Z,10.18
2023-04-27T03:45:55.687Z,10.17
2023-04-27T03:48:22.788Z,10.16
2023-04-27T03:50:50.648Z,10.15
2023-04-27T03:53:17.694Z,10.15
2023-04-27T03:55:45.154Z,10.14
2023-04-27T03:58:12.522Z,10.12
2023-04-27T04:00:50.005Z,10.10
2023-04-27T04:03:17.370Z,10.07
2023-04-27T04:05:47.334Z,10.05
2023-04-27T04:08:14.825Z,10.05
2023-04-27T04:10:41.877Z,10.05
2023-04-27T04:13:11.073Z,10.04
2023-04-27T04:15:38.147Z,10.04
2023-04-27T04:18:05.834Z,10.03
2023-04-27T04:20:35.211Z,10.04
2023-04-27T04:23:03.145Z,10.03
2023-04-27T04:25:30.200Z,10.03
2023-04-27T04:27:58.159Z,10.03
2023-04-27T04:30:25.310Z,10.05
2023-04-27T04:32:52.701Z,10.04
2023-04-27T04:35:20.225Z,10.06
2023-04-27T04:37:47.687Z,10.08
2023-04-27T04:40:14.833Z,10.10
2023-04-27T04:42:42.291Z,10.12
2023-04-27T04:45:10.666Z,10.18
2023-04-27T04:47:37.738Z,10.25
2023-04-27T04:50:05.272Z,10.33
2023-04-27T04:52:32.219Z,10.42
2023-04-27T04:54:59.264Z,10.50
2023-04-27T04:57:27.035Z,10.61
2023-04-27T04:59:55.027Z,10.76
2023-04-27T05:02:22.210Z,10.92
2023-04-27T05:04:49.592Z,11.08
2023-04-27T05:07:20.195Z,11.24
2023-04-27T05:09:50.456Z,11.36
2023-04-27T05:12:17.526Z,11.40
2023-04-27T05:14:44.651Z,11.36
2023-04-27T05:17:12.531Z,11.31
2023-04-27T05:19:39.464Z,11.28
2023-04-27T05:22:06.522Z,11.20
2023-04-27T05:24:33.673Z,11.19
2023-04-27T05:27:02.293Z,11.18
2023-04-27T05:29:29.896Z,11.18
2023-04-27T05:31:57.287Z,11.19
2023-04-27T05:34:24.397Z,11.26
2023-04-27T05:36:51.558Z,11.38
2023-04-27T05:39:18.602Z,11.54
2023-04-27T05:41:45.542Z,11.71
2023-04-27T05:44:12.484Z,11.88
2023-04-27T05:46:39.546Z,11.97
2023-04-27T05:49:06.809Z,12.00
2023-04-27T05:51:33.830Z,11.95
2023-04-27T05:54:02.200Z,11.87
2023-04-27T05:56:29.261Z,11.78
2023-04-27T05:58:56.202Z,11.72
2023-04-27T06:01:23.861Z,11.68
2023-04-27T06:03:50.848Z,11.68
2023-04-27T06:06:18.056Z,11.67
2023-04-27T06:08:45.105Z,11.69
2023-04-27T06:11:12.252Z,11.70
2023-04-27T06:13:39.202Z,11.68
2023-04-27T06:16:06.627Z,11.67
2023-04-27T06:18:33.805Z,11.64
2023-04-27T06:21:04.133Z,11.59
2023-04-27T06:23:31.187Z,11.51
2023-04-27T06:25:59.138Z,11.44
2023-04-27T06:28:26.396Z,11.36
2023-04-27T06:30:54.114Z,11.29
2023-04-27T06:33:21.108Z,11.28
2023-04-27T06:35:48.257Z,11.25
2023-04-27T06:38:15.503Z,11.24
2023-04-27T06:40:42.579Z,11.26
2023-04-27T06:43:10.110Z,11.26
2023-04-27T06:45:37.049Z,11.30
2023-04-27T06:48:04.760Z,11.32
2023-04-27T06:50:31.775Z,11.34
2023-04-27T06:52:58.911Z,11.32
2023-04-27T06:55:26.368Z,11.31
2023-04-27T06:57:53.309Z,11.30
2023-04-27T07:00:20.663Z,11.33
2023-04-27T07:02:47.854Z,11.39
2023-04-27T07:05:14.966Z,11.43
2023-04-27T07:07:42.039Z,11.51
2023-04-27T07:10:09.566Z,11.61
2023-04-27T07:12:37.747Z,11.72
2023-04-27T07:15:06.677Z,11.86
2023-04-27T07:17:34.033Z,11.97
2023-04-27T07:20:07.205Z,12.16
2023-04-27T07:22:34.219Z,12.34
2023-04-27T07:26:48.485Z,12.59
2023-04-27T07:29:26.509Z,12.67
2023-04-27T07:31:56.024Z,12.85
2023-04-27T07:34:23.247Z,13.02
2023-04-27T07:36:51.313Z,13.16
2023-04-27T07:39:18.684Z,13.25
2023-04-27T07:41:45.717Z,13.35
2023-04-27T07:44:12.651Z,13.47
2023-04-27T07:46:40.062Z,13.65
2023-04-27T07:49:07.159Z,13.73
2023-04-27T07:51:34.817Z,13.74
2023-04-27T07:54:03.708Z,13.80
2023-04-27T07:56:30.650Z,13.82
2023-04-27T07:58:57.621Z,13.79
2023-04-27T08:01:24.648Z,13.73
2023-04-27T08:03:52.067Z,13.62
2023-04-27T08:06:19.757Z,13.40
2023-04-27T08:08:47.217Z,13.23
2023-04-27T08:11:14.266Z,13.12
2023-04-27T08:13:41.523Z,13.06
2023-04-27T08:16:08.597Z,13.01
2023-04-27T08:18:35.487Z,12.97
2023-04-27T08:21:02.759Z,13.05
2023-04-27T08:23:33.133Z,13.19
2023-04-27T08:26:00.233Z,13.28
2023-04-27T08:28:27.300Z,13.29
2023-04-27T08:30:54.295Z,13.28
2023-04-27T08:33:21.375Z,13.32
2023-04-27T08:35:48.314Z,13.37
2023-04-27T08:38:15.568Z,13.45
2023-04-27T08:40:44.057Z,13.55
2023-04-27T08:43:11.420Z,13.69
2023-04-27T08:45:38.575Z,13.80
2023-04-27T08:48:06.445Z,13.86
2023-04-27T08:50:33.668Z,13.89
2023-04-27T08:53:00.922Z,13.88
2023-04-27T08:55:28.103Z,13.88
2023-04-27T08:57:56.356Z,13.87
2023-04-27T09:00:27.499Z,13.92
2023-04-27T09:02:54.666Z,13.95
2023-04-27T09:05:23.320Z,13.96
2023-04-27T09:08:16.893Z,13.95
2023-04-27T09:10:50.988Z,14.00
2023-04-27T09:13:18.769Z,14.03
2023-04-27T09:15:50.925Z,14.06
2023-04-27T09:18:22.182Z,14.09
2023-04-27T09:20:52.820Z,14.17
2023-04-27T09:23:28.165Z,14.26
2023-04-27T09:25:56.674Z,14.43
2023-04-27T09:28:28.288Z,14.62
2023-04-27T09:30:56.714Z,14.81
2023-04-27T09:33:34.467Z,15.00
2023-04-27T09:36:06.537Z,15.15
2023-04-27T09:38:33.680Z,15.25
2023-04-27T09:41:01.149Z,15.34
2023-04-27T09:43:29.786Z,15.44
2023-04-27T09:45:56.796Z,15.52
2023-04-27T09:48:24.427Z,15.64
2023-04-27T09:50:52.090Z,15.84
2023-04-27T09:53:24.560Z,15.99
2023-04-27T09:55:54.476Z,16.06
2023-04-27T09:58:34.116Z,16.20
2023-04-27T10:01:35.259Z,16.35
2023-04-27T10:04:17.324Z,16.50
2023-04-27T10:07:15.437Z,16.58
2023-04-27T10:09:46.682Z,16.65
2023-04-27T10:12:26.729Z,16.69
2023-04-27T10:14:55.616Z,16.72
2023-04-27T10:17:33.885Z,16.77
2023-04-27T10:20:06.163Z,16.82
2023-04-27T10:22:51.271Z,16.86
2023-04-27T10:25:19.442Z,16.99
2023-04-27T10:27:59.313Z,17.13
2023-04-27T10:30:27.676Z,17.26
2023-04-27T10:32:56.150Z,17.37
2023-04-27T10:35:44.702Z,17.55
2023-04-27T10:38:27.017Z,17.76
2023-04-27T10:40:58.663Z,17.86
2023-04-27T10:43:27.430Z,17.90
2023-04-27T10:45:54.620Z,17.93
2023-04-27T10:48:22.674Z,17.98
2023-04-27T10:50:51.976Z,18.05
2023-04-27T10:53:19.646Z,18.15
2023-04-27T10:55:47.032Z,18.19
2023-04-27T10:58:14.547Z,18.23
2023-04-27T11:00:44.365Z,18.17
2023-04-27T11:03:17.289Z,17.96
2023-04-27T11:05:45.457Z,17.76
2023-04-27T11:08:16.980Z,17.62
2023-04-27T11:10:44.730Z,17.56
2023-04-27T11:13:16.753Z,17.58
2023-04-27T11:15:50.125Z,17.63
2023-04-27T11:18:18.641Z,17.65
2023-04-27T11:20:48.394Z,17.66
2023-04-27T11:23:29.083Z,17.70
2023-04-27T11:25:56.813Z,17.82
2023-04-27T11:28:24.606Z,18.00
2023-04-27T11:30:58.791Z,18.11
2023-04-27T11:33:27.800Z,18.00
2023-04-27T11:35:55.142Z,17.91
2023-04-27T11:38:22.327Z,17.98
2023-04-27T11:41:04.322Z,18.16
2023-04-27T11:43:32.141Z,18.37
2023-04-27T11:46:02.468Z,18.55
2023-04-27T11:48:29.923Z,18.68
2023-04-27T11:50:59.280Z,18.74
2023-04-27T11:53:34.379Z,18.56
2023-04-27T11:56:05.926Z,18.25
2023-04-27T11:58:34.427Z,18.16
2023-04-27T12:01:01.657Z,18.11
2023-04-27T12:03:29.223Z,18.03
2023-04-27T12:06:01.733Z,18.08
2023-04-27T12:08:34.558Z,18.36
2023-04-27T12:11:01.501Z,18.64
2023-04-27T12:13:28.772Z,18.92
2023-04-27T12:15:55.810Z,19.18
2023-04-27T12:18:23.156Z,19.40
2023-04-27T12:20:50.101Z,19.74
2023-04-27T12:23:17.657Z,20.11
2023-04-27T12:25:44.595Z,19.97
2023-04-27T12:28:12.671Z,19.81
2023-04-27T12:30:39.762Z,19.74
2023-04-27T12:33:11.322Z,19.68
2023-04-27T12:35:39.562Z,19.86
2023-04-27T12:38:06.489Z,20.06
2023-04-27T12:40:33.545Z,19.82
2023-04-27T12:43:01.552Z,19.45
2023-04-27T12:45:28.663Z,19.33
2023-04-27T12:48:03.400Z,19.33
2023-04-27T12:50:34.034Z,19.15
2023-04-27T12:53:01.336Z,18.93
2023-04-27T12:55:32.991Z,18.74
2023-04-27T12:58:02.611Z,18.81
2023-04-27T13:00:30.118Z,18.85
2023-04-27T13:02:57.690Z,18.67
2023-04-27T13:05:24.807Z,18.40
2023-04-27T13:07:52.455Z,17.97
2023-04-27T13:10:19.498Z,17.56
2023-04-27T13:12:46.467Z,17.01
2023-04-27T13:15:13.492Z,16.34
2023-04-27T13:17:42.978Z,15.75
2023-04-27T13:20:11.501Z,15.23
2023-04-27T13:22:40.878Z,14.86
2023-04-27T13:25:09.610Z,14.45
2023-04-27T13:27:36.812Z,14.12
2023-04-27T13:30:05.383Z,13.95
2023-04-27T13:32:37.600Z,13.77
2023-04-27T13:35:05.637Z,13.65
2023-04-27T13:37:32.607Z,13.43
2023-04-27T13:39:59.562Z,13.28
2023-04-27T13:42:29.754Z,12.98
2023-04-27T13:44:57.269Z,12.83
2023-04-27T13:47:24.407Z,12.66
2023-04-27T13:49:51.614Z,12.52
2023-04-27T13:52:18.751Z,12.41
2023-04-27T13:54:45.798Z,12.35
2023-04-27T13:57:12.744Z,12.25
2023-04-27T13:59:39.692Z,12.10
2023-04-27T14:02:06.738Z,11.98
2023-04-27T14:04:33.742Z,11.92
2023-04-27T14:07:00.928Z,11.87
2023-04-27T14:09:28.383Z,11.80
2023-04-27T14:11:57.293Z,11.71
2023-04-27T14:14:24.467Z,11.63
2023-04-27T14:16:54.977Z,11.60
2023-04-27T14:19:22.185Z,11.54
2023-04-27T14:21:52.539Z,11.47
2023-04-27T14:24:19.820Z,11.40
2023-04-27T14:26:47.848Z,11.31
2023-04-27T14:29:15.329Z,11.24
2023-04-27T14:31:42.696Z,11.16
2023-04-27T14:34:09.633Z,11.07
2023-04-27T14:36:36.858Z,11.00
2023-04-27T14:39:05.610Z,10.94
2023-04-27T14:41:32.589Z,10.89
2023-04-27T14:43:59.545Z,10.87
2023-04-27T14:46:26.835Z,10.83
2023-04-27T14:48:53.830Z,10.83
2023-04-27T14:51:21.697Z,10.81
2023-04-27T14:53:48.641Z,10.81
2023-04-27T14:56:15.594Z,10.79
2023-04-27T14:58:42.546Z,10.80
2023-04-27T15:01:09.606Z,10.82
2023-04-27T15:03:37.357Z,10.80
2023-04-27T15:06:05.929Z,10.83
2023-04-27T15:08:34.272Z,10.83
2023-04-27T15:11:03.918Z,10.84
2023-04-27T15:13:31.059Z,10.85
2023-04-27T15:15:58.764Z,10.86
2023-04-27T15:18:26.380Z,10.82
2023-04-27T15:20:57.215Z,10.79
2023-04-27T15:23:24.672Z,10.77
2023-04-27T15:25:54.327Z,10.74
2023-04-27T15:28:22.146Z,10.72
2023-04-27T15:30:49.603Z,10.71
2023-04-27T15:33:17.776Z,10.68
2023-04-27T15:35:44.764Z,10.66
2023-04-27T15:38:12.791Z,10.61
2023-04-27T15:40:40.091Z,10.58
2023-04-27T15:43:07.184Z,10.54
2023-04-27T15:45:34.246Z,10.48
2023-04-27T15:48:01.627Z,10.45
2023-04-27T15:50:29.044Z,10.43
2023-04-27T15:52:56.424Z,10.41
2023-04-27T15:55:23.444Z,10.41
2023-04-27T15:57:50.715Z,10.42
2023-04-27T16:00:19.169Z,10.41
2023-04-27T16:02:46.660Z,10.40
2023-04-27T16:05:14.189Z,10.38
2023-04-27T16:07:42.874Z,10.34
2023-04-27T16:10:09.952Z,10.31
2023-04-27T16:12:37.077Z,10.30
2023-04-27T16:15:04.594Z,10.26
2023-04-27T16:17:35.849Z,10.22
2023-04-27T16:20:09.800Z,10.19
2023-04-27T16:22:37.152Z,10.17
2023-04-27T16:25:06.863Z,10.16
2023-04-27T16:27:34.505Z,10.16
2023-04-27T16:30:01.507Z,10.15
2023-04-27T16:32:28.791Z,10.16
2023-04-27T16:34:55.957Z,10.16
2023-04-27T16:37:22.904Z,10.14
2023-04-27T16:39:49.946Z,10.14
2023-04-27T16:42:20.725Z,10.14
2023-04-27T16:44:47.931Z,10.16
2023-04-27T16:47:15.083Z,10.14
2023-04-27T16:49:43.568Z,10.13
2023-04-27T16:52:11.437Z,10.12
2023-04-27T16:54:38.376Z,10.11
2023-04-27T16:57:05.527Z,10.12
2023-04-27T16:59:32.667Z,10.12
2023-04-27T17:02:06.402Z,10.12
2023-04-27T17:04:41.020Z,10.12
2023-04-27T17:07:09.276Z,10.15
2023-04-27T17:09:39.087Z,10.17
2023-04-27T17:12:11.256Z,10.20
2023-04-27T17:14:38.677Z,10.21
2023-04-27T17:17:06.502Z,10.21
2023-04-27T17:19:33.514Z,10.22
2023-04-27T17:22:00.573Z,10.26
2023-04-27T17:24:27.615Z,10.28
2023-04-27T17:26:54.658Z,10.30
2023-04-27T17:29:22.051Z,10.31
2023-04-27T17:31:50.459Z,10.32
2023-04-27T17:34:17.634Z,10.33
2023-04-27T17:36:44.693Z,10.33
2023-04-27T17:39:13.824Z,10.33
2023-04-27T17:41:41.145Z,10.33
2023-04-27T17:44:08.396Z,10.34
2023-04-27T17:46:37.546Z,10.33
2023-04-27T17:49:04.703Z,10.31
2023-04-27T17:51:33.112Z,10.29
2023-04-27T17:54:00.672Z,10.26
2023-04-27T17:56:27.632Z,10.24
2023-04-27T17:58:54.867Z,10.22
2023-04-27T18:01:22.011Z,10.19
2023-04-27T18:03:50.291Z,10.16
2023-04-27T18:06:19.593Z,10.14
2023-04-27T18:08:46.642Z,10.11
2023-04-27T18:11:13.582Z,10.08
2023-04-27T18:13:40.532Z,10.04
2023-04-27T18:16:07.700Z,10.02
2023-04-27T18:18:34.951Z,10.00
2023-04-27T18:21:01.983Z,9.99
2023-04-27T18:23:29.343Z,9.97
2023-04-27T18:26:00.162Z,9.97
2023-04-27T18:28:27.521Z,9.95
2023-04-27T18:30:54.572Z,9.95
2023-04-27T18:33:22.230Z,9.94
2023-04-27T18:35:49.517Z,9.94
2023-04-27T18:38:16.738Z,9.94
2023-04-27T18:40:44.185Z,9.93
2023-04-27T18:43:11.440Z,9.92
2023-04-27T18:45:38.541Z,9.92
2023-04-27T18:48:05.885Z,9.91
2023-04-27T18:50:32.981Z,9.90
2023-04-27T18:53:00.028Z,9.89
2023-04-27T18:55:27.010Z,9.88
2023-04-27T18:57:54.031Z,9.87
2023-04-27T19:00:21.188Z,9.86
2023-04-27T19:02:48.457Z,9.87
2023-04-27T19:05:16.320Z,9.86
2023-04-27T19:07:43.353Z,9.85
2023-04-27T19:10:11.362Z,9.84
2023-04-27T19:12:38.662Z,9.83
2023-04-27T19:15:06.526Z,9.83
2023-04-27T19:17:33.789Z,9.81
2023-04-27T19:20:00.931Z,9.77
2023-04-27T19:22:29.506Z,9.75
2023-04-27T19:24:56.466Z,9.75
2023-04-27T19:27:23.412Z,9.75
2023-04-27T19:29:57.718Z,9.74
2023-04-27T19:32:28.579Z,9.72
2023-04-27T19:34:56.730Z,9.72
2023-04-27T19:37:24.730Z,9.70
2023-04-27T19:39:51.840Z,9.69
2023-04-27T19:45:09.995Z,9.64
2023-04-27T19:47:37.204Z,9.64
2023-04-27T19:50:05.120Z,9.63
2023-04-27T19:52:32.061Z,9.61
2023-04-27T19:55:00.178Z,9.60
2023-04-27T19:57:27.487Z,9.58
2023-04-27T19:59:54.529Z,9.57
2023-04-27T20:02:21.731Z,9.57
2023-04-27T20:04:49.064Z,9.55
2023-04-27T20:07:16.285Z,9.54
2023-04-27T20:09:43.344Z,9.52
2023-04-27T20:12:23.768Z,9.49
2023-04-27T20:14:57.705Z,9.46
2023-04-27T20:17:27.534Z,9.46
2023-04-27T20:19:56.499Z,9.44
2023-04-27T20:22:23.784Z,9.42
2023-04-27T20:24:51.008Z,9.41
2023-04-27T20:27:18.157Z,9.38
2023-04-27T20:29:47.364Z,9.36
2023-04-27T20:32:14.310Z,9.34
2023-04-27T20:34:41.348Z,9.32
2023-04-27T20:37:09.809Z,9.30
2023-04-27T20:39:36.993Z,9.28
2023-04-27T20:42:04.021Z,9.26
2023-04-27T20:44:32.458Z,9.25
2023-04-27T20:46:59.477Z,9.22
2023-04-27T20:49:34.464Z,9.18
2023-04-27T20:52:02.319Z,9.17
2023-04-27T20:54:32.919Z,9.13
2023-04-27T20:57:03.865Z,9.07
2023-04-27T20:59:31.167Z,9.04
2023-04-27T21:01:58.235Z,9.03
2023-04-27T21:04:25.481Z,9.01
2023-04-27T21:06:53.037Z,8.97
2023-04-27T21:09:19.981Z,8.96
2023-04-27T21:11:47.031Z,8.95
2023-04-27T21:14:14.256Z,8.94
2023-04-27T21:16:41.609Z,8.95
2023-04-27T21:19:09.186Z,8.92
2023-04-27T21:21:36.332Z,8.91
2023-04-27T21:24:08.268Z,8.88
2023-04-27T21:26:35.654Z,8.83
2023-04-27T21:29:05.690Z,8.79
2023-04-27T21:31:33.568Z,8.75
2023-04-27T21:34:01.916Z,8.71
2023-04-27T21:36:29.032Z,8.67
2023-04-27T21:38:56.203Z,8.65
2023-04-27T21:41:23.154Z,8.63
2023-04-27T21:43:51.422Z,8.60
2023-04-27T21:46:18.463Z,8.57
2023-04-27T21:48:46.129Z,8.57
2023-04-27T21:51:13.180Z,8.56
2023-04-27T21:53:40.534Z,8.56
2023-04-27T21:56:07.990Z,8.55
2023-04-27T21:58:34.935Z,8.55
2023-04-27T22:01:01.880Z,8.54
2023-04-27T22:03:29.316Z,8.54
2023-04-27T22:05:58.226Z,8.53
2023-04-27T22:08:25.490Z,8.53
2023-04-27T22:10:52.501Z,8.54
2023-04-27T22:13:19.911Z,8.52
2023-04-27T22:15:47.730Z,8.51
2023-04-27T22:18:15.710Z,8.51
2023-04-27T22:20:43.197Z,8.52
2023-04-27T22:23:10.422Z,8.53
2023-04-27T22:25:37.403Z,8.51
2023-04-27T22:28:04.518Z,8.48
2023-04-27T22:30:31.473Z,8.44
2023-04-27T22:32:58.478Z,8.43
2023-04-27T22:35:27.586Z,8.42
2023-04-27T22:37:55.993Z,8.42
2023-04-27T22:40:23.635Z,8.42
2023-04-27T22:42:51.093Z,8.42
2023-04-27T22:45:18.455Z,8.41
2023-04-27T22:47:46.292Z,8.39
2023-04-27T22:50:13.687Z,8.36
2023-04-27T22:52:42.528Z,8.34
2023-04-27T22:55:10.631Z,8.31
2023-04-27T22:57:38.185Z,8.29
2023-04-27T23:00:05.819Z,8.28
2023-04-27T23:02:32.969Z,8.26
2023-04-27T23:05:00.301Z,8.24
2023-04-27T23:07:28.724Z,8.22
2023-04-27T23:09:56.603Z,8.20
2023-04-27T23:12:26.982Z,8.15
2023-04-27T23:14:53.909Z,8.12
2023-04-27T23:17:23.075Z,8.11
2023-04-27T23:19:50.414Z,8.09
2023-04-27T23:22:17.355Z,8.06
2023-04-27T23:24:44.412Z,8.06
2023-04-27T23:27:11.555Z,8.05
2023-04-27T23:29:39.623Z,8.04
2023-04-27T23:32:06.673Z,8.04
2023-04-27T23:34:33.716Z,8.02
2023-04-27T23:37:00.905Z,8.04
2023-04-27T23:39:28.544Z,8.03
2023-04-27T23:41:55.595Z,8.04
2023-04-27T23:44:22.501Z,8.06
2023-04-27T23:46:49.463Z,8.04
2023-04-27T23:49:16.521Z,8.05
2023-04-27T23:51:43.406Z,8.04
2023-04-27T23:54:10.504Z,8.06
2023-04-27T23:56:37.453Z,8.04
2023-04-27T23:59:04.496Z,8.02
